createdAt,value
2023-01-27T00:02:16.337Z,3.46
2023-01-27T00:04:17.728Z,3.46
2023-01-27T00:06:19.009Z,3.46
2023-01-27T00:08:20.391Z,3.47
2023-01-27T00:12:22.856Z,3.46
2023-01-27T00:14:23.926Z,3.46
2023-01-27T00:16:25.441Z,3.46
2023-01-27T00:18:27.125Z,3.46
2023-01-27T00:20:28.844Z,3.46
2023-01-27T00:22:30.407Z,3.46
2023-01-27T00:24:31.813Z,3.46
2023-01-27T00:28:34.768Z,3.46
2023-01-27T00:30:36.859Z,3.46
2023-01-27T00:32:38.022Z,3.46
2023-01-27T00:34:39.892Z,3.46
2023-01-27T00:36:41.597Z,3.46
2023-01-27T00:38:43.060Z,3.46
2023-01-27T00:40:44.774Z,3.46
2023-01-27T00:44:47.615Z,3.46
2023-01-27T00:46:49.354Z,3.46
2023-01-27T00:48:50.437Z,3.46
2023-01-27T00:50:52.056Z,3.46
2023-01-27T00:54:55.069Z,3.46
2023-01-27T00:56:56.169Z,3.46
2023-01-27T01:00:59.188Z,3.46
2023-01-27T01:03:01.151Z,3.46
2023-01-27T01:05:02.857Z,3.46
2023-01-27T01:07:04.083Z,3.46
2023-01-27T01:11:07.507Z,3.46
2023-01-27T01:13:08.728Z,3.46
2023-01-27T01:15:10.329Z,3.46
2023-01-27T01:17:12.041Z,3.46
2023-01-27T01:19:13.361Z,3.46
2023-01-27T01:21:14.521Z,3.46
2023-01-27T01:23:15.792Z,3.46
2023-01-27T01:27:19.037Z,3.46
2023-01-27T01:29:20.275Z,3.46
2023-01-27T01:31:21.487Z,3.46
2023-01-27T01:33:23.401Z,3.46
2023-01-27T01:37:26.494Z,3.45
2023-01-27T01:39:27.623Z,3.46
2023-01-27T01:43:31.373Z,3.46
2023-01-27T01:45:32.726Z,3.45
2023-01-27T01:47:34.748Z,3.45
2023-01-27T01:49:36.164Z,3.46
2023-01-27T01:53:39.400Z,3.46
2023-01-27T01:55:41.244Z,3.46
2023-01-27T01:57:43.214Z,3.45
2023-01-27T01:59:44.592Z,3.45
2023-01-27T02:01:46.588Z,3.45
2023-01-27T02:03:48.521Z,3.45
2023-01-27T02:05:50.451Z,3.45
2023-01-27T02:09:53.456Z,3.45
2023-01-27T02:11:55.493Z,3.45
2023-01-27T02:13:57.317Z,3.45
2023-01-27T02:15:59.093Z,3.45
2023-01-27T02:20:02.517Z,3.45
2023-01-27T02:22:04.630Z,3.45
2023-01-27T02:26:07.643Z,3.45
2023-01-27T02:28:09.347Z,3.45
2023-01-27T02:30:11.037Z,3.45
2023-01-27T02:32:12.608Z,3.45
2023-01-27T02:36:15.195Z,3.45
2023-01-27T02:38:16.647Z,3.45
2023-01-27T02:40:17.880Z,3.45
2023-01-27T02:42:19.372Z,3.45
2023-01-27T02:44:21.150Z,3.45
2023-01-27T02:46:22.859Z,3.45
2023-01-27T02:48:24.512Z,3.45
2023-01-27T02:52:28.216Z,3.44
2023-01-27T02:54:29.301Z,3.45
2023-01-27T02:56:30.938Z,3.45
2023-01-27T02:58:32.960Z,3.44
2023-01-27T03:02:36.223Z,3.45
2023-01-27T03:04:37.796Z,3.45
2023-01-27T03:08:41.289Z,3.45
2023-01-27T03:10:42.855Z,3.44
2023-01-27T03:12:44.014Z,3.44
2023-01-27T03:14:45.111Z,3.45
2023-01-27T03:18:47.677Z,3.44
2023-01-27T03:20:49.048Z,3.44
2023-01-27T03:22:50.370Z,3.44
2023-01-27T03:24:51.411Z,3.44
2023-01-27T03:26:52.803Z,3.44
2023-01-27T03:28:54.127Z,3.44
2023-01-27T03:30:55.312Z,3.44
2023-01-27T03:34:57.982Z,3.44
2023-01-27T03:36:59.188Z,3.44
2023-01-27T03:39:00.827Z,3.44
2023-01-27T03:41:02.079Z,3.44
2023-01-27T03:45:05.656Z,3.44
2023-01-27T03:47:06.880Z,3.44
2023-01-27T03:49:08.147Z,3.44
2023-01-27T03:51:09.497Z,3.44
2023-01-27T03:53:10.963Z,3.44
2023-01-27T03:55:12.850Z,3.44
2023-01-27T03:57:14.206Z,3.44
2023-01-27T04:01:17.779Z,3.44
2023-01-27T04:03:19.096Z,3.44
2023-01-27T04:07:21.939Z,3.44
2023-01-27T04:09:23.216Z,3.44
2023-01-27T04:11:24.954Z,3.44
2023-01-27T04:13:26.260Z,3.44
2023-01-27T04:17:28.934Z,3.44
2023-01-27T04:21:32.253Z,3.44
2023-01-27T04:23:33.704Z,3.44
2023-01-27T04:25:34.875Z,3.44
2023-01-27T04:27:36.860Z,3.44
2023-01-27T04:29:38.265Z,3.43
2023-01-27T04:33:41.066Z,3.43
2023-01-27T04:35:42.860Z,3.43
2023-01-27T04:37:44.584Z,3.43
2023-01-27T04:39:46.032Z,3.43
2023-01-27T04:41:47.808Z,3.44
2023-01-27T04:43:49.226Z,3.43
2023-01-27T04:45:50.415Z,3.43
2023-01-27T04:49:53.370Z,3.43
2023-01-27T04:51:54.692Z,3.43
2023-01-27T04:53:56.431Z,3.43
2023-01-27T04:55:58.121Z,3.43
2023-01-27T04:58:43.276Z,3.42
2023-01-27T05:00:44.508Z,3.43
2023-01-27T05:02:46.296Z,3.43
2023-01-27T05:04:47.789Z,3.43
2023-01-27T05:06:49.191Z,3.43
2023-01-27T05:10:52.669Z,3.43
2023-01-27T05:12:54.611Z,3.43
2023-01-27T05:16:57.421Z,3.43
2023-01-27T05:18:59.061Z,3.43
2023-01-27T05:21:01.052Z,3.43
2023-01-27T05:23:02.875Z,3.43
2023-01-27T05:27:06.332Z,3.42
2023-01-27T05:29:07.751Z,3.42
2023-01-27T05:31:09.412Z,3.42
2023-01-27T05:33:10.475Z,3.42
2023-01-27T05:35:12.410Z,3.42
2023-01-27T05:37:14.142Z,3.42
2023-01-27T05:39:14.980Z,3.42
2023-01-27T05:43:17.919Z,3.42
2023-01-27T05:45:19.481Z,3.42
2023-01-27T05:47:21.182Z,3.42
2023-01-27T05:49:23.013Z,3.42
2023-01-27T05:53:26.421Z,3.42
2023-01-27T05:55:28.218Z,3.42
2023-01-27T05:57:30.067Z,3.42
2023-01-27T05:59:31.777Z,3.42
2023-01-27T06:01:33.282Z,3.42
2023-01-27T06:03:34.842Z,3.42
2023-01-27T06:05:35.958Z,3.42
2023-01-27T06:09:38.280Z,3.42
2023-01-27T06:11:40.193Z,3.42
2023-01-27T06:13:41.812Z,3.42
2023-01-27T06:15:43.193Z,3.42
2023-01-27T06:17:44.573Z,3.42
2023-01-27T06:19:45.725Z,3.42
2023-01-27T06:21:47.259Z,3.42
2023-01-27T06:25:49.752Z,3.42
2023-01-27T06:27:51.653Z,3.42
2023-01-27T06:29:53.630Z,3.42
2023-01-27T06:31:55.043Z,3.42
2023-01-27T06:35:58.136Z,3.42
2023-01-27T06:37:59.376Z,3.42
2023-01-27T06:42:02.071Z,3.42
2023-01-27T06:44:03.311Z,3.42
2023-01-27T06:46:05.654Z,3.42
2023-01-27T06:48:05.916Z,3.42
2023-01-27T06:52:08.884Z,3.42
2023-01-27T06:54:10.110Z,3.42
2023-01-27T06:56:11.803Z,3.42
2023-01-27T06:58:12.921Z,3.42
2023-01-27T07:00:14.806Z,3.42
2023-01-27T07:02:16.532Z,3.42
2023-01-27T07:04:17.601Z,3.42
2023-01-27T07:08:20.957Z,3.42
2023-01-27T07:10:22.915Z,3.42
2023-01-27T07:12:24.465Z,3.42
2023-01-27T07:14:26.299Z,3.42
2023-01-27T07:18:29.357Z,3.41
2023-01-27T07:20:30.820Z,3.42
2023-01-27T07:24:34.185Z,3.42
2023-01-27T07:26:35.884Z,3.42
2023-01-27T07:28:37.811Z,3.42
2023-01-27T07:30:39.849Z,3.42
2023-01-27T07:34:43.300Z,3.42
2023-01-27T07:36:44.903Z,3.41
2023-01-27T07:38:46.765Z,3.42
2023-01-27T07:40:48.405Z,3.41
2023-01-27T07:42:49.974Z,3.42
2023-01-27T07:44:51.731Z,3.42
2023-01-27T07:46:53.084Z,3.42
2023-01-27T07:50:56.722Z,3.42
2023-01-27T07:52:58.519Z,3.41
2023-01-27T07:54:59.666Z,3.41
2023-01-27T07:57:01.611Z,3.42
2023-01-27T08:01:04.867Z,3.41
2023-01-27T08:03:06.368Z,3.41
2023-01-27T08:07:09.530Z,3.42
2023-01-27T08:09:10.894Z,3.41
2023-01-27T08:11:11.939Z,3.42
2023-01-27T08:13:13.542Z,3.41
2023-01-27T08:17:16.695Z,3.41
2023-01-27T08:19:17.888Z,3.41
2023-01-27T08:21:19.314Z,3.41
2023-01-27T08:23:21.194Z,3.41
2023-01-27T08:25:22.773Z,3.41
2023-01-27T08:27:23.867Z,3.41
2023-01-27T08:29:25.385Z,3.41
2023-01-27T08:33:27.619Z,3.41
2023-01-27T08:35:29.026Z,3.41
2023-01-27T08:37:30.302Z,3.41
2023-01-27T08:39:31.482Z,3.41
2023-01-27T08:43:34.055Z,3.41
2023-01-27T08:45:35.833Z,3.41
2023-01-27T08:47:36.830Z,3.41
2023-01-27T08:49:38.343Z,3.41
2023-01-27T08:51:39.477Z,3.41
2023-01-27T08:53:41.466Z,3.41
2023-01-27T08:55:43.034Z,3.41
2023-01-27T08:59:46.651Z,3.41
2023-01-27T09:01:48.426Z,3.42
2023-01-27T09:05:50.986Z,3.41
2023-01-27T09:07:52.779Z,3.41
2023-01-27T09:10:04.257Z,3.42
2023-01-27T09:11:56.251Z,3.41
2023-01-27T09:15:59.033Z,3.4
2023-01-27T09:18:00.379Z,3.41
2023-01-27T09:20:01.517Z,3.41
2023-01-27T09:22:02.703Z,3.41
2023-01-27T09:26:06.386Z,3.4
2023-01-27T09:28:07.436Z,3.41
2023-01-27T09:32:10.359Z,3.41
2023-01-27T09:34:11.858Z,3.41
2023-01-27T09:36:13.253Z,3.41
2023-01-27T09:38:14.744Z,3.41
2023-01-27T09:42:17.320Z,3.42
2023-01-27T09:44:19.184Z,3.42
2023-01-27T09:46:20.874Z,3.42
2023-01-27T09:48:22.213Z,3.42
2023-01-27T09:50:23.840Z,3.43
2023-01-27T09:52:26.239Z,3.42
2023-01-27T09:54:27.332Z,3.43
2023-01-27T09:58:30.535Z,3.43
2023-01-27T10:00:32.421Z,3.43
2023-01-27T10:02:33.635Z,3.43
2023-01-27T10:04:35.249Z,3.43
2023-01-27T10:06:37.131Z,3.43
2023-01-27T10:08:38.298Z,3.42
2023-01-27T10:10:40.173Z,3.42
2023-01-27T10:14:43.253Z,3.42
2023-01-27T10:16:44.743Z,3.42
2023-01-27T10:18:46.357Z,3.42
2023-01-27T10:20:47.591Z,3.42
2023-01-27T10:24:50.271Z,3.41
2023-01-27T10:26:51.723Z,3.42
2023-01-27T10:28:53.006Z,3.43
2023-01-27T10:30:54.775Z,3.43
2023-01-27T10:32:56.471Z,3.43
2023-01-27T10:34:58.500Z,3.43
2023-01-27T10:36:59.974Z,3.43
2023-01-27T10:41:02.815Z,3.43
2023-01-27T10:43:03.951Z,3.43
2023-01-27T10:45:05.425Z,3.43
2023-01-27T10:47:06.847Z,3.44
2023-01-27T10:49:08.690Z,3.44
2023-01-27T10:53:11.167Z,3.48
2023-01-27T10:57:14.246Z,3.48
2023-01-27T10:59:15.977Z,3.48
2023-01-27T11:01:21.153Z,3.49
2023-01-27T11:03:18.204Z,3.48
2023-01-27T11:07:21.012Z,3.48
2023-01-27T11:09:23.863Z,3.48
2023-01-27T11:13:25.285Z,3.47
2023-01-27T11:15:26.622Z,3.47
2023-01-27T11:17:28.419Z,3.46
2023-01-27T11:19:29.469Z,3.46
2023-01-27T11:23:32.557Z,3.46
2023-01-27T11:25:34.541Z,3.46
2023-01-27T11:27:36.159Z,3.46
2023-01-27T11:29:37.901Z,3.46
2023-01-27T11:31:39.649Z,3.45
2023-01-27T11:33:41.219Z,3.46
2023-01-27T11:35:42.821Z,3.45
2023-01-27T11:39:45.576Z,3.45
2023-01-27T11:41:47.310Z,3.46
2023-01-27T11:43:49.129Z,3.46
2023-01-27T11:44:33.033Z,3.45
2023-01-27T11:46:34.376Z,3.46
2023-01-27T11:48:36.384Z,3.46
2023-01-27T11:50:37.498Z,3.46
2023-01-27T11:52:39.487Z,3.46
2023-01-27T11:54:40.906Z,3.46
2023-01-27T11:56:42.144Z,3.47
2023-01-27T12:00:45.094Z,3.48
2023-01-27T12:02:46.225Z,3.47
2023-01-27T12:06:49.048Z,3.48
2023-01-27T12:08:50.519Z,3.48
2023-01-27T12:10:51.999Z,3.49
2023-01-27T12:12:53.702Z,3.49
2023-01-27T12:16:56.260Z,3.48
2023-01-27T12:18:58.164Z,3.48
2023-01-27T12:21:00.134Z,3.49
2023-01-27T12:23:01.509Z,3.48
2023-01-27T12:27:04.244Z,3.49
2023-01-27T12:29:06.102Z,3.48
2023-01-27T12:31:07.524Z,3.48
2023-01-27T12:33:09.195Z,3.48
2023-01-27T12:35:11.039Z,3.48
2023-01-27T12:37:12.514Z,3.48
2023-01-27T12:39:13.800Z,3.48
2023-01-27T12:43:16.547Z,3.48
2023-01-27T12:45:18.071Z,3.48
2023-01-27T12:49:20.996Z,3.48
2023-01-27T12:51:22.838Z,3.48
2023-01-27T12:53:26.240Z,3.48
2023-01-27T12:55:26.173Z,3.48
2023-01-27T12:59:28.832Z,3.49
2023-01-27T13:01:30.037Z,3.49
2023-01-27T13:03:31.974Z,3.5
2023-01-27T13:05:33.342Z,3.49
2023-01-27T13:09:36.571Z,3.49
2023-01-27T13:11:38.371Z,3.49
2023-01-27T13:13:40.168Z,3.49
2023-01-27T13:15:41.885Z,3.49
2023-01-27T13:17:43.593Z,3.48
2023-01-27T13:19:44.865Z,3.49
2023-01-27T13:21:45.868Z,3.49
2023-01-27T13:25:48.879Z,3.5
2023-01-27T13:27:50.324Z,3.5
2023-01-27T13:29:51.853Z,3.5
2023-01-27T13:31:53.758Z,3.51
2023-01-27T13:33:54.760Z,3.51
2023-01-27T13:35:56.502Z,3.52
2023-01-27T13:37:58.336Z,3.52
2023-01-27T13:42:01.873Z,3.52
2023-01-27T13:44:03.355Z,3.52
2023-01-27T13:46:04.612Z,3.52
2023-01-27T13:48:06.038Z,3.52
2023-01-27T13:50:07.079Z,3.51
2023-01-27T13:52:08.342Z,3.51
2023-01-27T13:54:10.220Z,3.51
2023-01-27T13:58:13.675Z,3.51
2023-01-27T14:00:15.932Z,3.51
2023-01-27T14:02:17.323Z,3.5
2023-01-27T14:04:19.018Z,3.5
2023-01-27T14:08:22.515Z,3.5
2023-01-27T14:10:23.923Z,3.5
2023-01-27T14:12:33.548Z,3.5
2023-01-27T14:14:27.284Z,3.49
2023-01-27T14:16:28.568Z,3.49
2023-01-27T14:18:29.633Z,3.49
2023-01-27T14:20:30.901Z,3.49
2023-01-27T14:24:34.647Z,3.49
2023-01-27T14:26:35.726Z,3.49
2023-01-27T14:28:36.952Z,3.48
2023-01-27T14:30:38.092Z,3.49
2023-01-27T14:32:39.558Z,3.48
2023-01-27T14:34:41.144Z,3.48
2023-01-27T14:36:42.487Z,3.48
2023-01-27T14:40:45.115Z,3.48
2023-01-27T14:42:46.978Z,3.48
2023-01-27T14:44:55.794Z,3.48
2023-01-27T14:46:50.528Z,3.48
2023-01-27T14:50:53.421Z,3.48
2023-01-27T14:52:54.708Z,3.48
2023-01-27T14:54:55.963Z,3.48
2023-01-27T14:56:57.299Z,3.48
2023-01-27T14:58:59.159Z,3.48
2023-01-27T15:01:00.802Z,3.48
2023-01-27T15:03:01.823Z,3.48
2023-01-27T15:07:05.375Z,3.48
2023-01-27T15:09:06.910Z,3.48
2023-01-27T15:11:08.084Z,3.47
2023-01-27T15:13:09.938Z,3.48
2023-01-27T15:15:12.193Z,3.47
2023-01-27T15:17:13.431Z,3.47
2023-01-27T15:19:15.528Z,3.47
2023-01-27T15:23:18.235Z,3.47
2023-01-27T15:25:19.929Z,3.47
2023-01-27T15:27:21.496Z,3.47
2023-01-27T15:29:23.477Z,3.47
2023-01-27T15:33:26.614Z,3.47
2023-01-27T15:35:28.125Z,3.47
2023-01-27T15:37:29.607Z,3.47
2023-01-27T15:39:40.721Z,3.47
2023-01-27T15:41:32.961Z,3.47
2023-01-27T15:43:34.156Z,3.47
2023-01-27T15:45:35.692Z,3.47
2023-01-27T15:49:38.227Z,3.47
2023-01-27T15:51:39.963Z,3.47
2023-01-27T15:53:41.325Z,3.47
2023-01-27T15:55:43.209Z,3.46
2023-01-27T15:57:44.510Z,3.46
2023-01-27T15:59:53.368Z,3.46
2023-01-27T16:01:47.533Z,3.46
2023-01-27T16:05:51.210Z,3.46
2023-01-27T16:07:52.909Z,3.46
2023-01-27T16:09:54.861Z,3.46
2023-01-27T16:11:56.442Z,3.46
2023-01-27T16:15:59.378Z,3.46
2023-01-27T16:18:00.776Z,3.46
2023-01-27T16:22:04.129Z,3.46
2023-01-27T16:24:05.513Z,3.46
2023-01-27T16:26:07.493Z,3.46
2023-01-27T16:28:08.818Z,3.46
2023-01-27T16:32:12.716Z,3.46
2023-01-27T16:34:14.123Z,3.46
2023-01-27T16:36:16.002Z,3.46
2023-01-27T16:38:17.200Z,3.46
2023-01-27T16:40:18.448Z,3.46
2023-01-27T16:42:20.432Z,3.46
2023-01-27T16:44:22.380Z,3.46
2023-01-27T16:48:25.128Z,3.45
2023-01-27T16:50:26.517Z,3.46
2023-01-27T16:52:40.628Z,3.46
2023-01-27T16:54:29.171Z,3.46
2023-01-27T16:58:39.958Z,3.45
2023-01-27T17:00:33.618Z,3.45
2023-01-27T17:04:36.426Z,3.45
2023-01-27T17:06:38.312Z,3.45
2023-01-27T17:08:39.780Z,3.45
2023-01-27T17:10:41.287Z,3.45
2023-01-27T17:14:44.026Z,3.45
2023-01-27T17:16:45.446Z,3.45
2023-01-27T17:18:52.478Z,3.45
2023-01-27T17:20:47.888Z,3.45
2023-01-27T17:22:49.634Z,3.45
2023-01-27T17:24:50.795Z,3.45
2023-01-27T17:26:52.127Z,3.45
2023-01-27T17:30:55.557Z,3.45
2023-01-27T17:32:57.004Z,3.45
2023-01-27T17:34:58.984Z,3.44
2023-01-27T17:37:00.185Z,3.45
2023-01-27T17:41:03.372Z,3.44
2023-01-27T17:43:04.407Z,3.45
2023-01-27T17:45:06.491Z,3.45
2023-01-27T17:47:07.660Z,3.44
2023-01-27T17:49:09.039Z,3.44
2023-01-27T17:51:10.206Z,3.45
2023-01-27T17:53:11.770Z,3.44
2023-01-27T17:57:14.802Z,3.44
2023-01-27T17:59:16.453Z,3.44
2023-01-27T18:03:20.116Z,3.44
2023-01-27T18:05:21.273Z,3.44
2023-01-27T18:07:22.679Z,3.44
2023-01-27T18:09:23.781Z,3.44
2023-01-27T18:13:26.224Z,3.44
2023-01-27T18:15:27.837Z,3.44
2023-01-27T18:17:29.332Z,3.44
2023-01-27T18:19:30.459Z,3.44
2023-01-27T18:23:32.931Z,3.44
2023-01-27T18:25:34.696Z,3.44
2023-01-27T18:29:37.767Z,3.44
2023-01-27T18:30:21.716Z,3.43
2023-01-27T18:32:22.763Z,3.44
2023-01-27T18:34:24.192Z,3.43
2023-01-27T18:36:25.727Z,3.44
2023-01-27T18:38:27.311Z,3.44
2023-01-27T18:40:28.984Z,3.44
2023-01-27T18:42:30.106Z,3.44
2023-01-27T18:44:32.119Z,3.43
2023-01-27T18:46:33.719Z,3.44
2023-01-27T18:50:36.991Z,3.44
2023-01-27T18:52:38.949Z,3.43
2023-01-27T18:54:40.819Z,3.43
2023-01-27T18:56:42.586Z,3.43
2023-01-27T18:58:43.910Z,3.43
2023-01-27T19:00:45.413Z,3.43
2023-01-27T19:02:46.914Z,3.43
2023-01-27T19:06:50.555Z,3.43
2023-01-27T19:08:52.603Z,3.43
2023-01-27T19:10:54.538Z,3.43
2023-01-27T19:12:55.681Z,3.43
2023-01-27T19:14:57.695Z,3.43
2023-01-27T19:16:58.822Z,3.43
2023-01-27T19:19:00.518Z,3.43
2023-01-27T19:21:01.776Z,3.43
2023-01-27T19:23:03.184Z,3.43
2023-01-27T19:25:04.330Z,3.43
2023-01-27T19:27:06.112Z,3.43
2023-01-27T19:29:08.037Z,3.43
2023-01-27T19:33:11.488Z,3.43
2023-01-27T19:35:13.046Z,3.43
2023-01-27T19:37:14.421Z,3.43
2023-01-27T19:39:16.136Z,3.42
2023-01-27T19:41:18.084Z,3.43
2023-01-27T19:43:19.412Z,3.43
2023-01-27T19:45:21.078Z,3.42
2023-01-27T19:49:23.823Z,3.42
2023-01-27T19:51:25.403Z,3.42
2023-01-27T19:53:27.073Z,3.42
2023-01-27T19:55:28.681Z,3.42
2023-01-27T19:59:31.817Z,3.42
2023-01-27T20:01:33.009Z,3.42
2023-01-27T20:05:35.925Z,3.42
2023-01-27T20:07:37.761Z,3.42
2023-01-27T20:09:39.641Z,3.42
2023-01-27T20:11:40.784Z,3.42
2023-01-27T20:15:43.788Z,3.42
2023-01-27T20:17:44.879Z,3.42
2023-01-27T20:19:46.848Z,3.42
2023-01-27T20:21:48.076Z,3.42
2023-01-27T20:23:49.898Z,3.42
2023-01-27T20:25:51.802Z,3.42
2023-01-27T20:27:53.179Z,3.42
2023-01-27T20:31:56.397Z,3.42
2023-01-27T20:33:57.689Z,3.42
2023-01-27T20:35:59.218Z,3.42
2023-01-27T20:38:02.558Z,3.42
2023-01-27T20:42:03.751Z,3.42
2023-01-27T20:44:05.657Z,3.42
2023-01-27T20:48:08.200Z,3.42
2023-01-27T20:50:09.977Z,3.42
2023-01-27T20:52:11.631Z,3.42
2023-01-27T20:54:13.197Z,3.42
2023-01-27T20:58:16.321Z,3.42
2023-01-27T21:00:18.289Z,3.42
2023-01-27T21:02:19.828Z,3.42
2023-01-27T21:04:21.370Z,3.42
2023-01-27T21:06:23.388Z,3.42
2023-01-27T21:08:25.402Z,3.42
2023-01-27T21:10:27.151Z,3.42
2023-01-27T21:14:30.681Z,3.42
2023-01-27T21:16:32.647Z,3.42
2023-01-27T21:18:34.025Z,3.42
2023-01-27T21:20:36.004Z,3.42
2023-01-27T21:24:39.124Z,3.42
2023-01-27T21:26:40.618Z,3.41
2023-01-27T21:30:43.752Z,3.41
2023-01-27T21:32:45.182Z,3.42
2023-01-27T21:34:46.746Z,3.42
2023-01-27T21:36:48.569Z,3.42
2023-01-27T21:40:51.197Z,3.41
2023-01-27T21:42:52.850Z,3.41
2023-01-27T21:44:54.032Z,3.42
2023-01-27T21:46:55.685Z,3.41
2023-01-27T21:48:57.655Z,3.41
2023-01-27T21:50:59.402Z,3.42
2023-01-27T21:53:01.035Z,3.42
2023-01-27T21:57:03.643Z,3.41
2023-01-27T21:59:05.353Z,3.42
2023-01-27T22:01:07.248Z,3.41
2023-01-27T22:03:09.093Z,3.42
2023-01-27T22:07:12.098Z,3.42
2023-01-27T22:09:14.018Z,3.41
2023-01-27T22:11:15.614Z,3.41
2023-01-27T22:13:17.106Z,3.41
2023-01-27T22:15:18.319Z,3.41
2023-01-27T22:17:20.187Z,3.41
2023-01-27T22:19:21.220Z,3.41
2023-01-27T22:21:22.224Z,3.41
2023-01-27T22:23:24.223Z,3.41
2023-01-27T22:25:25.340Z,3.41
2023-01-27T22:29:27.946Z,3.41
2023-01-27T22:31:29.123Z,3.41
2023-01-27T22:33:30.760Z,3.41
2023-01-27T22:35:31.983Z,3.41
2023-01-27T22:39:34.931Z,3.41
2023-01-27T22:41:36.289Z,3.41
2023-01-27T22:45:39.130Z,3.41
2023-01-27T22:47:41.191Z,3.41
2023-01-27T22:51:44.076Z,3.41
2023-01-27T22:55:46.621Z,3.41
2023-01-27T22:57:47.951Z,3.41
2023-01-27T23:01:50.441Z,3.41
2023-01-27T23:03:52.141Z,3.41
2023-01-27T23:05:53.858Z,3.41
2023-01-27T23:07:55.616Z,3.41
2023-01-27T23:11:58.873Z,3.4
2023-01-27T23:14:00.600Z,3.4
2023-01-27T23:16:02.188Z,3.41
2023-01-27T23:18:03.942Z,3.41
2023-01-27T23:22:07.258Z,3.4
2023-01-27T23:24:09.013Z,3.4
2023-01-27T23:28:11.263Z,3.4
2023-01-27T23:30:12.646Z,3.4
2023-01-27T23:32:14.253Z,3.4
2023-01-27T23:34:15.706Z,3.4
2023-01-27T23:38:31.613Z,3.4
2023-01-27T23:40:20.942Z,3.4
2023-01-27T23:42:22.275Z,3.4
2023-01-27T23:44:23.394Z,3.4
2023-01-27T23:46:25.151Z,3.4
2023-01-27T23:48:26.890Z,3.4
2023-01-27T23:50:28.788Z,3.4
2023-01-27T23:54:31.845Z,3.4
2023-01-27T23:56:33.114Z,3.4
2023-01-27T23:58:34.408Z,3.4
